Time;durP1;ratioP1;P1;durP2;ratioP2;P2;SDS_P1;SDS_P2;PMS_P1;PMS_P2;Temp;Humidity;BMP_temperature;BMP_pressure;BME280_temperature;BME280_humidity;BME280_pressure;Samples;Min_cycle;Max_cycle;Signal;HPM_P1;HPM_P2
2021/12/25 00:00:15;;;;;;;5.80;5.20;;;;;;;6.79;67.98;92890.20;1711160;83;20975;-54
2021/12/25 00:02:41;;;;;;;6.45;5.85;;;;;;;6.83;67.81;92879.84;1664285;83;21886;-54
2021/12/25 00:05:10;;;;;;;7.12;6.33;;;;;;;6.88;67.63;92878.58;1712015;83;21041;-54
2021/12/25 00:07:37;;;;;;;5.53;5.03;;;;;;;6.90;67.57;92876.13;1697767;83;21133;-53
2021/12/25 00:10:05;;;;;;;5.45;4.95;;;;;;;6.92;67.57;92878.41;1695044;83;21507;-58
2021/12/25 00:12:33;;;;;;;5.83;5.22;;;;;;;6.96;67.43;92877.61;1687520;84;20987;-53
2021/12/25 00:15:00;;;;;;;5.83;5.22;;;;;;;6.99;66.98;92873.34;1683352;83;21559;-55
2021/12/25 00:17:27;;;;;;;5.70;5.20;;;;;;;7.08;66.58;92885.54;1695422;83;20994;-54
2021/12/25 00:19:54;;;;;;;5.50;4.90;;;;;;;7.13;66.36;92885.64;1686398;83;20979;-54
2021/12/25 00:22:21;;;;;;;6.05;5.45;;;;;;;7.12;66.25;92895.08;1687955;84;21450;-54
2021/12/25 00:24:49;;;;;;;6.20;5.60;;;;;;;7.11;66.32;92886.73;1705296;83;21078;-54
2021/12/25 00:30:09;;;;;;;6.30;5.70;;;;;;;7.16;66.40;92892.91;1697492;83;20935;-54
2021/12/25 00:34:49;;;;;;;6.97;6.05;;;;;;;7.14;66.42;92897.35;1701206;83;21011;-55
2021/12/25 00:37:16;;;;;;;17.02;15.53;;;;;;;7.15;66.41;92902.96;1678831;83;21232;-55
2021/12/25 00:39:45;;;;;;;221.57;202.05;;;;;;;7.15;66.44;92905.06;1711467;83;21146;-54
2021/12/25 00:42:12;;;;;;;43.25;39.55;;;;;;;7.14;66.53;92910.39;1681442;83;21091;-54
2021/12/25 00:44:39;;;;;;;26.87;24.57;;;;;;;7.16;66.70;92901.73;1678464;83;20923;-55
2021/12/25 00:47:06;;;;;;;9.13;8.33;;;;;;;7.17;66.69;92926.48;1674430;83;20947;-55
2021/12/25 00:49:34;;;;;;;16.17;14.68;;;;;;;7.16;66.76;92914.78;1694897;83;21216;-54
2021/12/25 00:52:02;;;;;;;25.25;22.15;;;;;;;7.13;66.30;92910.25;1694562;83;21232;-55
2021/12/25 00:54:29;;;;;;;20.62;17.60;;;;;;;7.14;66.52;92919.97;1676536;83;21023;-55
2021/12/25 00:56:56;;;;;;;7.53;6.83;;;;;;;7.14;66.75;92921.95;1660188;84;21249;-55
2021/12/25 00:59:22;;;;;;;6.47;5.87;;;;;;;7.13;66.70;92932.12;1684405;83;21050;-54
2021/12/25 01:01:49;;;;;;;7.47;6.78;;;;;;;7.11;66.77;92940.05;1681802;83;21087;-55
2021/12/25 01:04:16;;;;;;;7.35;6.50;;;;;;;7.09;66.76;92937.03;1687049;83;21243;-55
2021/12/25 01:06:43;;;;;;;7.05;5.83;;;;;;;7.07;66.56;92935.97;1698856;83;21089;-55
2021/12/25 01:09:09;;;;;;;7.40;5.33;;;;;;;7.08;66.33;92942.21;1691136;83;21004;-56
2021/12/25 01:11:37;;;;;;;5.67;5.17;;;;;;;7.08;66.23;92939.48;1679808;83;21018;-55
2021/12/25 01:14:13;;;;;;;7.62;6.17;;;;;;;7.06;66.33;92934.47;1680317;84;20967;-54
2021/12/25 01:37:57;;;;;;;5.87;5.37;;;;;;;6.97;66.31;92936.52;1681306;83;21439;-53
2021/12/25 01:49:10;;;;;;;8.15;7.30;;;;;;;6.95;65.58;92941.10;1697224;83;21493;-54
2021/12/25 01:51:37;;;;;;;6.22;5.67;;;;;;;6.95;65.49;92952.03;1660950;83;21070;-54
2021/12/25 01:54:04;;;;;;;8.63;7.03;;;;;;;6.99;65.42;92950.47;1687674;83;21058;-54
2021/12/25 01:56:30;;;;;;;7.83;6.10;;;;;;;7.03;65.23;92957.27;1693282;83;21982;-54
2021/12/25 01:58:57;;;;;;;5.72;5.22;;;;;;;7.02;65.29;92967.30;1675218;85;21039;-54
2021/12/25 02:01:24;;;;;;;6.33;5.75;;;;;;;7.00;65.24;92971.11;1676617;84;21063;-54
2021/12/25 02:03:51;;;;;;;6.95;6.08;;;;;;;7.01;65.31;92976.72;1667494;83;20967;-55
2021/12/25 02:06:17;;;;;;;6.10;5.50;;;;;;;6.98;65.50;92963.39;1698601;83;21027;-54
2021/12/25 02:08:45;;;;;;;11.88;7.47;;;;;;;6.95;65.50;92960.23;1677133;83;21162;-54
2021/12/25 02:11:12;;;;;;;7.17;5.72;;;;;;;6.92;65.66;92957.05;1695281;84;20940;-55
2021/12/25 02:13:41;;;;;;;7.08;5.80;;;;;;;6.92;65.43;92960.41;1694010;83;21578;-55
2021/12/25 02:16:14;;;;;;;6.45;5.85;;;;;;;6.93;65.45;92964.05;1675816;83;21110;-54
2021/12/25 02:19:00;;;;;;;6.92;5.92;;;;;;;6.96;65.34;92960.97;1671727;84;21022;-55
2021/12/25 02:21:43;;;;;;;6.20;5.60;;;;;;;6.92;65.03;92969.34;1699509;83;20891;-53
2021/12/25 02:24:11;;;;;;;8.10;6.37;;;;;;;6.89;65.20;92970.91;1686673;83;21010;-55
2021/12/25 02:26:46;;;;;;;6.67;5.95;;;;;;;6.87;64.94;92976.83;1662614;84;21465;-54
2021/12/25 02:29:12;;;;;;;7.12;6.42;;;;;;;6.85;64.74;93005.86;1693468;83;21022;-53
2021/12/25 02:31:39;;;;;;;5.55;5.05;;;;;;;6.81;64.82;92972.46;1694981;83;21563;-54
2021/12/25 02:34:06;;;;;;;8.13;6.45;;;;;;;6.75;64.85;92990.73;1659267;84;21152;-54
2021/12/25 02:36:33;;;;;;;6.70;6.00;;;;;;;6.77;64.95;92995.88;1699281;83;20991;-54
2021/12/25 02:39:00;;;;;;;7.60;5.92;;;;;;;6.80;64.97;92984.02;1695398;83;21042;-54
2021/12/25 02:41:27;;;;;;;7.62;6.72;;;;;;;6.82;64.97;92990.37;1674801;83;20994;-53
2021/12/25 02:43:54;;;;;;;7.80;6.97;;;;;;;6.81;65.08;93001.16;1677741;83;20959;-55
2021/12/25 02:46:24;;;;;;;7.67;6.53;;;;;;;6.80;65.03;93020.14;1708486;83;21381;-54
2021/12/25 02:48:55;;;;;;;8.23;7.37;;;;;;;6.80;64.76;92996.91;1701785;83;21082;-54
2021/12/25 02:51:19;;;;;;;6.72;6.12;;;;;;;6.81;64.71;92997.83;1691788;83;20960;-54
2021/12/25 02:53:46;;;;;;;7.35;6.65;;;;;;;6.84;64.61;92996.13;1672244;84;21078;-55
2021/12/25 02:56:13;;;;;;;12.28;8.85;;;;;;;6.87;64.53;92995.22;1683127;83;20995;-54
2021/12/25 02:58:41;;;;;;;8.85;7.10;;;;;;;6.87;64.49;93003.41;1686063;83;21108;-54
2021/12/25 03:01:14;;;;;;;7.15;5.83;;;;;;;6.90;64.46;93005.21;1701718;83;21489;-53
2021/12/25 03:03:41;;;;;;;;;;;;;;;6.91;64.37;93003.98;1701012;83;21070;-54
2021/12/25 03:06:08;;;;;;;7.55;6.62;;;;;;;6.86;64.31;93006.74;1684192;83;20192;-54
2021/12/25 03:08:35;;;;;;;5.33;4.87;;;;;;;6.84;64.43;93015.25;1687776;83;20963;-54
2021/12/25 03:11:06;;;;;;;6.97;6.00;;;;;;;6.82;64.33;93021.20;1693937;83;21776;-54
2021/12/25 03:14:32;;;;;;;5.72;5.25;;;;;;;6.80;64.37;93025.60;1677268;83;20996;-55
2021/12/25 03:16:08;;;;;;;5.75;5.17;;;;;;;6.78;64.24;93012.42;1655099;84;21094;-54
2021/12/25 03:18:48;;;;;;;6.08;5.47;;;;;;;6.78;64.17;93022.58;1697225;83;21042;-54
2021/12/25 03:21:10;;;;;;;6.10;5.50;;;;;;;6.78;64.18;93015.16;1704611;83;21481;-54
2021/12/25 03:23:38;;;;;;;6.60;6.00;;;;;;;6.75;64.20;93007.89;1700114;83;22339;-54
2021/12/25 03:26:06;;;;;;;6.00;5.25;;;;;;;6.74;64.17;93006.35;1694750;83;20975;-54
2021/12/25 03:28:36;;;;;;;6.15;5.55;;;;;;;6.76;64.06;93012.13;1707121;83;21011;-55
2021/12/25 03:31:05;;;;;;;46.60;42.03;;;;;;;6.77;63.91;93006.05;1713214;83;20943;-55
2021/12/25 03:33:32;;;;;;;82.05;74.03;;;;;;;6.80;63.91;93024.23;1690200;83;20966;-54
2021/12/25 03:36:01;;;;;;;43.78;39.75;;;;;;;6.82;63.96;93019.06;1703214;83;21161;-54
2021/12/25 03:38:28;;;;;;;64.42;58.80;;;;;;;6.80;63.89;93021.51;1703732;83;20980;-55
2021/12/25 03:40:55;;;;;;;18.05;16.45;;;;;;;6.81;64.06;93031.22;1702127;83;20983;-54
2021/12/25 03:43:21;;;;;;;6.80;6.20;;;;;;;6.81;64.07;93043.52;1705999;83;20995;-54
2021/12/25 03:45:49;;;;;;;5.03;4.62;;;;;;;6.83;64.07;93038.34;1691125;83;21019;-54
2021/12/25 03:48:40;;;;;;;5.30;4.70;;;;;;;6.87;64.08;93035.58;1682126;83;21921;-54
2021/12/25 03:58:53;;;;;;;5.47;4.75;;;;;;;6.88;64.14;93037.72;1674683;83;20995;-53
2021/12/25 04:01:29;;;;;;;6.08;5.47;;;;;;;6.90;64.16;93053.04;1688578;83;21182;-55
2021/12/25 04:04:06;;;;;;;6.83;6.20;;;;;;;6.90;64.11;93043.48;1696247;83;20932;-54
2021/12/25 04:06:20;;;;;;;5.95;5.47;;;;;;;6.92;64.13;93046.50;1682262;83;21032;-55
2021/12/25 04:08:51;;;;;;;5.17;4.78;;;;;;;6.97;64.25;93055.42;1693903;83;21010;-55
2021/12/25 04:11:26;;;;;;;5.33;4.83;;;;;;;7.00;64.20;93044.91;1699118;83;21427;-55
2021/12/25 04:13:43;;;;;;;6.70;4.92;;;;;;;6.97;64.27;93052.09;1698668;83;21970;-55
2021/12/25 04:16:11;;;;;;;6.10;5.60;;;;;;;6.96;64.40;93058.00;1714869;83;20986;-54
2021/12/25 04:18:38;;;;;;;5.70;5.10;;;;;;;6.98;64.47;93065.13;1674213;83;20994;-54
2021/12/25 04:21:04;;;;;;;6.37;5.53;;;;;;;6.98;64.74;93062.39;1683823;83;20979;-54
2021/12/25 04:23:31;;;;;;;6.15;5.58;;;;;;;6.97;65.13;93075.92;1657152;84;21441;-56
2021/12/25 04:26:00;;;;;;;10.40;7.35;;;;;;;6.97;65.55;93073.19;1677931;84;21146;-55
2021/12/25 04:28:41;;;;;;;18.98;12.98;;;;;;;6.98;65.59;93077.43;1685538;84;21572;-54
2021/12/25 04:31:22;;;;;;;35.75;19.60;;;;;;;6.99;65.76;93081.67;1701480;82;21049;-55
2021/12/25 05:01:38;;;;;;;11.97;9.43;;;;;;;6.92;66.41;93083.39;1689016;83;21003;-56
2021/12/25 05:04:05;;;;;;;28.75;19.52;;;;;;;7.01;66.46;93096.41;1624416;85;20999;-54
2021/12/25 05:06:32;;;;;;;13.45;11.00;;;;;;;7.02;66.41;93098.51;1661572;84;21196;-54
2021/12/25 05:08:59;;;;;;;15.80;10.90;;;;;;;7.03;66.43;93093.22;1680110;83;21011;-55
2021/12/25 05:11:25;;;;;;;13.60;10.35;;;;;;;7.05;66.32;93090.77;1692624;83;21025;-56
2021/12/25 05:13:52;;;;;;;14.13;11.08;;;;;;;7.04;66.20;93086.52;1698490;83;21106;-55
2021/12/25 05:16:21;;;;;;;16.97;12.75;;;;;;;7.02;65.83;93099.88;1664743;84;21647;-55
2021/12/25 05:18:50;;;;;;;8.33;7.30;;;;;;;7.00;65.78;93099.59;1658005;84;21079;-54
2021/12/25 05:21:18;;;;;;;7.35;6.10;;;;;;;7.04;65.71;93105.66;1637672;85;21019;-54
2021/12/25 05:23:47;;;;;;;7.90;6.45;;;;;;;7.04;65.69;93106.41;1660609;84;21131;-54
2021/12/25 05:26:14;;;;;;;7.00;6.40;;;;;;;7.02;65.88;93107.48;1659102;83;21107;-55
2021/12/25 05:28:44;;;;;;;7.10;5.92;;;;;;;7.05;66.09;93103.08;1648788;85;21240;-56
2021/12/25 05:31:14;;;;;;;8.65;7.75;;;;;;;7.07;66.13;93118.40;1634306;86;21181;-55
2021/12/25 05:33:48;;;;;;;42.58;24.07;;;;;;;7.09;66.24;93124.30;1648134;86;20985;-54
2021/12/25 05:36:19;;;;;;;37.40;21.57;;;;;;;7.09;66.48;93130.37;1651054;86;21009;-54
2021/12/25 05:38:50;;;;;;;30.72;20.68;;;;;;;7.07;66.62;93137.54;1670661;84;21066;-54
2021/12/25 05:41:19;;;;;;;22.60;16.45;;;;;;;6.99;66.80;93130.28;1683083;84;21546;-53
2021/12/25 05:43:46;;;;;;;17.10;13.13;;;;;;;6.97;67.02;93136.83;1684112;84;21128;-55
2021/12/25 05:46:14;;;;;;;18.95;16.80;;;;;;;6.99;67.14;93144.55;1707900;83;21415;-55
2021/12/25 05:48:45;;;;;;;30.32;23.98;;;;;;;7.01;67.21;93150.30;1705101;83;21002;-55
2021/12/25 05:51:29;;;;;;;21.37;17.67;;;;;;;6.99;67.39;93154.11;1703709;83;21031;-55
2021/12/25 05:53:57;;;;;;;10.72;9.70;;;;;;;6.96;67.71;93153.67;1689339;83;21049;-56
2021/12/25 05:56:28;;;;;;;10.00;9.00;;;;;;;6.92;67.77;93157.93;1707559;83;21147;-55
2021/12/25 05:58:57;;;;;;;13.08;10.82;;;;;;;6.90;68.03;93159.63;1685754;83;21533;-55
2021/12/25 06:01:31;;;;;;;8.98;7.67;;;;;;;6.90;68.02;93162.37;1714712;82;20975;-55
2021/12/25 06:03:59;;;;;;;9.73;7.53;;;;;;;6.91;68.01;93157.78;1695215;83;21042;-55
2021/12/25 06:06:26;;;;;;;8.45;7.47;;;;;;;6.88;67.89;93157.97;1695589;83;21406;-55
2021/12/25 06:08:52;;;;;;;35.83;24.98;;;;;;;6.83;67.78;93162.08;1678397;83;20992;-54
2021/12/25 06:11:20;;;;;;;31.65;22.10;;;;;;;6.75;68.17;93173.80;1684826;83;21083;-55
2021/12/25 06:13:56;;;;;;;29.30;19.57;;;;;;;6.69;68.41;93187.95;1669689;83;21054;-55
2021/12/25 06:16:16;;;;;;;43.48;33.05;;;;;;;6.56;68.60;93188.11;1684095;83;21051;-54
2021/12/25 06:18:50;;;;;;;41.58;29.05;;;;;;;6.50;68.92;93194.67;1662862;83;21022;-55
2021/12/25 06:21:25;;;;;;;39.60;24.15;;;;;;;6.39;69.14;93208.03;1665426;85;21483;-56
2021/12/25 06:24:02;;;;;;;44.85;29.92;;;;;;;6.27;69.41;93214.41;1677256;83;21003;-55
2021/12/25 06:26:35;;;;;;;59.35;34.90;;;;;;;6.16;70.24;93212.14;1682983;84;20995;-55
2021/12/25 06:29:07;;;;;;;40.40;27.65;;;;;;;6.18;70.53;93221.25;1665949;83;21034;-55
2021/12/25 06:31:35;;;;;;;27.93;20.57;;;;;;;6.24;70.37;93224.87;1679087;84;21123;-55
2021/12/25 06:34:20;;;;;;;27.05;18.67;;;;;;;6.26;70.30;93225.17;1705469;83;21124;-56
2021/12/25 06:37:05;;;;;;;56.75;32.28;;;;;;;6.26;70.43;93221.08;1680491;83;20959;-54
2021/12/25 06:39:40;;;;;;;58.28;32.85;;;;;;;6.28;70.58;93222.75;1663591;84;21011;-55
2021/12/25 06:42:09;;;;;;;23.52;17.05;;;;;;;6.28;70.54;93224.88;1687980;83;21023;-56
2021/12/25 06:44:37;;;;;;;21.97;14.55;;;;;;;6.23;70.46;93230.96;1711138;83;21076;-55
2021/12/25 06:47:04;;;;;;;20.35;14.87;;;;;;;6.15;70.79;93236.56;1708865;82;21155;-55
2021/12/25 06:49:34;;;;;;;32.13;21.07;;;;;;;6.08;70.85;93245.66;1702241;83;21475;-55
2021/12/25 06:52:19;;;;;;;32.20;21.62;;;;;;;6.04;71.31;93242.32;1714024;83;20986;-55
2021/12/25 06:54:59;;;;;;;28.27;19.95;;;;;;;6.08;71.52;93241.55;1673009;83;20982;-55
2021/12/25 06:57:29;;;;;;;32.55;21.65;;;;;;;6.11;71.44;93236.55;1691371;83;21007;-56
2021/12/25 06:59:57;;;;;;;51.00;31.52;;;;;;;6.11;71.71;93241.41;1690683;83;21158;-54
2021/12/25 07:02:23;;;;;;;64.62;41.60;;;;;;;6.12;71.47;93254.47;1712278;83;20954;-55
2021/12/25 07:05:08;;;;;;;56.33;36.80;;;;;;;6.09;71.89;93247.94;1713256;83;20990;-56
2021/12/25 07:07:46;;;;;;;56.48;34.70;;;;;;;6.13;71.74;93253.26;1653970;86;21579;-55
2021/12/25 07:10:15;;;;;;;57.40;35.00;;;;;;;6.10;71.41;93245.95;1684189;83;21003;-55
2021/12/25 07:13:02;;;;;;;60.60;33.92;;;;;;;6.05;71.80;93252.02;1703137;83;21814;-55
2021/12/25 07:15:37;;;;;;;71.17;44.20;;;;;;;6.11;71.85;93253.70;1641551;84;20987;-55
2021/12/25 07:18:13;;;;;;;70.45;42.95;;;;;;;6.16;71.87;93259.17;1704718;83;20994;-54
2021/12/25 07:20:48;;;;;;;65.42;40.45;;;;;;;6.20;72.08;93265.23;1710414;83;21410;-54
2021/12/25 07:23:21;;;;;;;55.17;34.78;;;;;;;6.29;72.16;93273.41;1677411;83;21486;-56
2021/12/25 07:25:52;;;;;;;41.50;28.40;;;;;;;6.37;71.68;93270.54;1672730;83;21171;-55
2021/12/25 07:28:23;;;;;;;42.48;29.07;;;;;;;6.32;71.77;93276.00;1689631;83;21014;-57
2021/12/25 07:30:58;;;;;;;71.00;42.08;;;;;;;6.30;71.68;93283.89;1682647;83;21015;-56
2021/12/25 07:33:32;;;;;;;76.05;41.45;;;;;;;6.36;71.83;93286.78;1653759;84;20968;-55
2021/12/25 07:36:01;;;;;;;74.27;40.83;;;;;;;6.42;71.64;93291.77;1673710;84;21006;-55
2021/12/25 07:38:29;;;;;;;74.25;40.35;;;;;;;6.40;71.56;93293.61;1687553;83;21127;-56
2021/12/25 07:40:56;;;;;;;66.57;39.92;;;;;;;6.40;71.74;93288.74;1707701;83;20927;-55
2021/12/25 07:43:23;;;;;;;103.25;68.17;;;;;;;6.37;71.82;93288.30;1683999;83;21069;-56
2021/12/25 07:46:07;;;;;;;71.22;47.78;;;;;;;6.36;72.24;93297.70;1698722;83;20998;-57
2021/12/25 07:48:34;;;;;;;69.90;43.87;;;;;;;6.42;72.53;93293.91;1705262;83;20962;-56
2021/12/25 07:51:06;;;;;;;69.62;42.90;;;;;;;6.54;72.50;93305.89;1664192;83;21091;-56
2021/12/25 07:53:32;;;;;;;74.58;46.60;;;;;;;6.70;72.26;93306.95;1720072;83;21108;-56
2021/12/25 07:55:59;;;;;;;54.58;37.53;;;;;;;6.79;71.68;93311.80;1692529;83;21109;-57
2021/12/25 07:58:26;;;;;;;54.50;35.03;;;;;;;6.79;71.35;93312.39;1689468;83;21074;-57
2021/12/25 08:00:53;;;;;;;53.60;34.80;;;;;;;6.74;71.24;93319.84;1678360;83;21449;-54
2021/12/25 08:03:20;;;;;;;63.10;40.33;;;;;;;6.63;71.11;93317.58;1689310;83;21063;-56
2021/12/25 08:05:48;;;;;;;61.50;38.02;;;;;;;6.46;71.12;93318.32;1683012;83;21523;-54
2021/12/25 08:08:18;;;;;;;65.57;39.98;;;;;;;6.30;71.41;93330.93;1676627;83;21016;-57
2021/12/25 08:10:45;;;;;;;63.87;40.55;;;;;;;6.16;71.92;93326.05;1697294;83;20959;-57
2021/12/25 08:13:18;;;;;;;52.95;33.38;;;;;;;6.14;71.92;93325.13;1703553;82;21071;-57
2021/12/25 08:15:45;;;;;;;54.98;35.30;;;;;;;6.15;72.12;93328.63;1691996;83;21162;-56
2021/12/25 08:18:16;;;;;;;68.02;41.35;;;;;;;6.20;71.97;93323.34;1698745;83;21003;-55
2021/12/25 08:21:04;;;;;;;63.00;36.90;;;;;;;6.24;72.05;93329.41;1675568;83;21472;-54
2021/12/25 08:23:49;;;;;;;48.42;30.85;;;;;;;6.39;72.02;93325.46;1699817;83;21509;-55
2021/12/25 08:26:35;;;;;;;46.35;29.48;;;;;;;6.53;71.42;93328.34;1691591;83;21086;-56
2021/12/25 08:29:17;;;;;;;41.92;26.27;;;;;;;6.64;71.06;93329.25;1687188;83;21078;-56
2021/12/25 08:31:58;;;;;;;42.98;25.27;;;;;;;6.77;70.29;93316.19;1642853;86;20987;-55
2021/12/25 08:34:43;;;;;;;24.92;17.27;;;;;;;6.78;69.52;93334.88;1695151;83;21026;-55
2021/12/25 08:37:15;;;;;;;20.32;14.80;;;;;;;6.80;68.62;93349.44;1685237;83;20943;-54
2021/12/25 08:39:44;;;;;;;19.73;12.63;;;;;;;6.76;68.07;93350.20;1682073;83;20996;-56
2021/12/25 08:42:12;;;;;;;13.83;10.18;;;;;;;6.73;67.49;93335.47;1692185;83;21169;-56
2021/12/25 08:44:53;;;;;;;14.07;9.63;;;;;;;6.65;67.07;93344.42;1685059;83;21523;-54
2021/12/25 08:47:11;;;;;;;14.47;10.70;;;;;;;6.59;66.75;93348.98;1706852;83;21066;-56
2021/12/25 08:49:39;;;;;;;13.20;10.32;;;;;;;6.51;66.67;93344.43;1703021;83;21035;-56
2021/12/25 08:52:11;;;;;;;11.40;9.08;;;;;;;6.52;66.49;93350.67;1680811;84;20970;-56
2021/12/25 08:54:39;;;;;;;9.35;7.87;;;;;;;6.43;66.02;93349.28;1694592;83;21498;-56
2021/12/25 08:57:06;;;;;;;11.60;8.38;;;;;;;6.34;66.33;93354.75;1691671;83;21006;-57
2021/12/25 08:59:34;;;;;;;10.55;8.10;;;;;;;6.28;66.26;93356.54;1701714;83;20979;-55
2021/12/25 09:02:04;;;;;;;8.03;7.08;;;;;;;6.17;66.46;93358.97;1709782;83;20986;-56
2021/12/25 09:04:31;;;;;;;8.03;7.10;;;;;;;6.12;66.78;93365.03;1690276;83;21078;-55
2021/12/25 09:06:58;;;;;;;8.65;6.90;;;;;;;6.06;66.19;93359.40;1687713;83;21146;-56
2021/12/25 09:09:25;;;;;;;11.97;7.90;;;;;;;5.85;66.46;93366.30;1698336;83;20943;-56
2021/12/25 09:11:52;;;;;;;9.23;7.72;;;;;;;5.68;66.70;93360.32;1674107;83;20991;-55
2021/12/25 09:14:21;;;;;;;10.70;8.78;;;;;;;5.58;66.79;93364.20;1671562;85;21035;-56
2021/12/25 09:16:48;;;;;;;10.82;8.10;;;;;;;5.40;66.72;93375.66;1707728;83;20950;-56
2021/12/25 09:19:15;;;;;;;10.08;7.60;;;;;;;5.25;67.22;93381.47;1705322;83;21169;-54
2021/12/25 09:21:43;;;;;;;10.18;7.65;;;;;;;5.17;67.62;93372.02;1697269;83;20982;-53
2021/12/25 09:24:12;;;;;;;8.78;6.97;;;;;;;5.08;67.73;93380.16;1702433;83;21614;-54
2021/12/25 09:26:39;;;;;;;9.53;7.50;;;;;;;4.98;67.44;93385.37;1707370;83;21498;-56
2021/12/25 09:29:08;;;;;;;13.65;8.08;;;;;;;4.89;67.54;93379.11;1695819;83;21059;-54
2021/12/25 09:31:35;;;;;;;13.10;9.58;;;;;;;4.77;68.01;93395.67;1711358;82;22944;-55
2021/12/25 09:34:02;;;;;;;15.88;10.23;;;;;;;4.72;68.07;93389.44;1723538;82;20947;-54
2021/12/25 09:36:30;;;;;;;20.12;12.70;;;;;;;4.66;68.15;93395.30;1699577;82;21498;-55
2021/12/25 09:38:58;;;;;;;17.95;12.40;;;;;;;4.57;68.22;93397.94;1731967;82;21082;-55
2021/12/25 09:41:25;;;;;;;14.47;9.48;;;;;;;4.47;68.74;93408.61;1728046;82;21036;-53
2021/12/25 09:43:53;;;;;;;14.23;9.63;;;;;;;4.39;68.84;93400.50;1728251;82;21204;-54
2021/12/25 09:46:21;;;;;;;11.88;8.28;;;;;;;4.32;69.15;93404.83;1716566;82;21548;-55
2021/12/25 09:48:51;;;;;;;9.88;8.23;;;;;;;4.26;69.65;93412.02;1730765;82;20994;-54
2021/12/25 09:51:21;;;;;;;10.23;7.03;;;;;;;4.19;70.02;93410.89;1716485;82;21046;-55
2021/12/25 09:54:07;;;;;;;10.50;7.65;;;;;;;4.16;70.29;93414.50;1709899;82;21505;-54
2021/12/25 09:56:38;;;;;;;10.30;9.05;;;;;;;4.10;70.70;93416.27;1720961;82;21126;-55
2021/12/25 09:59:06;;;;;;;10.55;9.10;;;;;;;4.03;71.17;93419.19;1730925;82;20996;-54
2021/12/25 10:01:45;;;;;;;9.20;7.90;;;;;;;3.98;71.29;93408.09;1728220;83;20952;-55
2021/12/25 10:04:37;;;;;;;8.63;7.72;;;;;;;3.99;71.29;93417.19;1727416;82;20968;-55
2021/12/25 10:07:25;;;;;;;8.95;7.92;;;;;;;3.97;71.40;93412.79;1723189;82;20964;-55
2021/12/25 10:10:02;;;;;;;9.33;7.05;;;;;;;3.99;71.45;93428.66;1725500;82;21169;-54
2021/12/25 10:12:45;;;;;;;7.58;6.65;;;;;;;4.02;71.42;93430.53;1728094;82;21059;-55
2021/12/25 10:15:18;;;;;;;9.78;7.58;;;;;;;4.01;71.28;93443.95;1725508;83;21475;-53
2021/12/25 10:17:51;;;;;;;13.35;9.03;;;;;;;3.97;71.26;93434.55;1717684;82;21386;-54
2021/12/25 10:20:23;;;;;;;15.72;10.90;;;;;;;3.89;71.24;93435.95;1730550;82;21018;-54
2021/12/25 10:23:12;;;;;;;17.98;11.50;;;;;;;3.82;71.50;93434.83;1730503;82;21518;-55
2021/12/25 10:25:48;;;;;;;15.45;9.53;;;;;;;3.77;71.25;93440.82;1719125;82;21034;-55
2021/12/25 10:28:21;;;;;;;17.52;10.28;;;;;;;3.70;71.24;93436.94;1735218;82;20940;-55
2021/12/25 10:31:06;;;;;;;20.17;11.48;;;;;;;3.70;71.19;93443.73;1726970;82;20995;-55
2021/12/25 10:33:50;;;;;;;17.75;11.18;;;;;;;3.69;71.03;93443.58;1701016;82;20959;-55
2021/12/25 10:36:31;;;;;;;26.37;17.73;;;;;;;3.71;70.78;93438.46;1731586;82;21130;-55
2021/12/25 10:39:20;;;;;;;13.90;12.03;;;;;;;3.68;70.74;93429.81;1728640;82;21051;-55
2021/12/25 10:41:57;;;;;;;11.18;9.18;;;;;;;3.71;70.61;93426.22;1729643;82;21013;-54
2021/12/25 10:44:31;;;;;;;14.28;10.28;;;;;;;3.75;70.23;93426.91;1692071;82;21077;-55
2021/12/25 10:47:09;;;;;;;9.30;8.30;;;;;;;3.76;69.65;93428.42;1725040;82;21534;-55
2021/12/25 10:49:47;;;;;;;14.60;11.20;;;;;;;3.69;69.37;93440.86;1725648;82;21327;-55
2021/12/25 10:52:21;;;;;;;13.98;8.80;;;;;;;3.64;69.22;93439.27;1724633;82;20995;-56
2021/12/25 10:55:02;;;;;;;12.43;8.75;;;;;;;3.56;69.26;93436.03;1730258;82;21515;-54
2021/12/25 10:57:37;;;;;;;12.03;8.25;;;;;;;3.54;69.00;93447.16;1696687;82;21025;-55
2021/12/25 11:00:14;;;;;;;10.93;8.08;;;;;;;3.49;68.99;93445.73;1677928;83;21589;-55
2021/12/25 11:02:57;;;;;;;10.72;8.08;;;;;;;3.46;69.20;93447.80;1679850;83;21550;-54
2021/12/25 11:05:34;;;;;;;12.03;7.78;;;;;;;3.45;69.07;93444.92;1667430;84;20964;-56
2021/12/25 11:08:11;;;;;;;13.85;8.73;;;;;;;3.41;69.26;93449.09;1653850;84;21078;-55
2021/12/25 11:10:59;;;;;;;22.62;15.53;;;;;;;3.39;69.47;93439.26;1669525;85;21114;-53
2021/12/25 11:13:45;;;;;;;13.75;11.08;;;;;;;3.38;69.72;93443.78;1619556;86;21872;-55
2021/12/25 11:16:35;;;;;;;13.72;10.82;;;;;;;3.41;69.50;93443.66;1665853;84;21189;-54
2021/12/25 11:19:11;;;;;;;13.13;9.23;;;;;;;3.40;69.76;93440.04;1629469;84;21436;-56
2021/12/25 11:21:54;;;;;;;15.08;10.10;;;;;;;3.43;69.83;93443.24;1638263;84;21109;-54
2021/12/25 11:24:21;;;;;;;18.15;9.95;;;;;;;3.49;69.81;93438.20;1647373;85;21040;-56
2021/12/25 11:26:57;;;;;;;12.40;9.50;;;;;;;3.48;69.89;93441.50;1649706;83;21029;-55
2021/12/25 11:29:28;;;;;;;9.68;8.75;;;;;;;3.53;69.81;93435.52;1658702;84;21070;-53
2021/12/25 11:31:56;;;;;;;12.70;9.43;;;;;;;3.55;69.99;93435.09;1661651;84;21627;-54
2021/12/25 11:34:23;;;;;;;12.13;8.23;;;;;;;3.53;70.14;93432.05;1660776;85;21037;-56
2021/12/25 11:36:52;;;;;;;10.60;7.47;;;;;;;3.51;70.15;93435.80;1663068;84;21156;-55
2021/12/25 11:39:22;;;;;;;10.88;8.58;;;;;;;3.43;70.36;93433.73;1650725;85;21077;-54
2021/12/25 11:41:50;;;;;;;10.70;8.50;;;;;;;3.42;70.80;93432.20;1647639;84;21180;-55
2021/12/25 11:44:44;;;;;;;9.60;8.43;;;;;;;3.48;70.68;93435.91;1611623;85;21040;-55
2021/12/25 11:47:39;;;;;;;12.23;8.85;;;;;;;3.48;70.74;93434.70;1653403;85;21536;-56
2021/12/25 11:50:26;;;;;;;10.28;8.60;;;;;;;3.45;70.73;93434.80;1653116;84;20978;-56
2021/12/25 11:53:09;;;;;;;11.05;8.20;;;;;;;3.38;70.84;93428.84;1663875;85;21167;-56
2021/12/25 11:58:37;;;;;;;;;;;;;;;3.25;71.46;93437.56;1704976;83;21115;-57
2021/12/25 12:00:50;;;;;;;10.48;8.60;;;;;;;3.23;71.53;93442.67;1704072;83;20146;-54
2021/12/25 12:03:39;;;;;;;10.43;8.38;;;;;;;3.24;71.50;93436.04;1690283;83;21091;-53
2021/12/25 12:06:06;;;;;;;11.68;9.05;;;;;;;3.21;71.18;93435.55;1698969;83;21039;-56
2021/12/25 12:08:58;;;;;;;11.83;8.38;;;;;;;3.19;71.07;93442.76;1694076;83;21115;-54
2021/12/25 12:11:37;;;;;;;13.05;7.58;;;;;;;3.17;71.09;93432.15;1669503;83;21024;-55
2021/12/25 12:14:26;;;;;;;9.20;7.47;;;;;;;3.17;71.28;93436.22;1693337;83;21025;-56
2021/12/25 12:17:22;;;;;;;13.60;9.78;;;;;;;3.22;71.37;93434.35;1696888;83;21607;-54
2021/12/25 12:19:53;;;;;;;10.78;8.55;;;;;;;3.25;71.53;93432.88;1682859;83;21515;-55
2021/12/25 12:22:40;;;;;;;15.90;9.65;;;;;;;3.32;71.21;93440.06;1687621;83;21204;-58
2021/12/25 12:25:23;;;;;;;14.53;10.48;;;;;;;3.32;71.08;93436.76;1683183;83;21012;-55
2021/12/25 12:28:01;;;;;;;12.45;9.08;;;;;;;3.26;70.91;93443.16;1691578;83;21097;-58
2021/12/25 12:30:38;;;;;;;14.23;10.05;;;;;;;3.21;71.15;93446.41;1703322;84;21552;-54
2021/12/25 12:33:23;;;;;;;16.60;11.73;;;;;;;3.17;71.10;93445.73;1672248;83;21448;-56
2021/12/25 12:35:55;;;;;;;14.33;9.70;;;;;;;3.07;71.36;93448.17;1695148;83;21801;-55
2021/12/25 12:38:42;;;;;;;9.98;8.28;;;;;;;3.01;71.49;93453.94;1689812;83;21056;-57
2021/12/25 12:41:34;;;;;;;11.08;8.90;;;;;;;2.92;71.83;93455.18;1684156;83;21043;-55
2021/12/25 12:44:25;;;;;;;13.43;10.53;;;;;;;2.90;72.25;93453.49;1683271;83;21559;-55
2021/12/25 12:46:55;;;;;;;15.30;10.93;;;;;;;2.80;72.61;93459.95;1681777;83;21115;-55
2021/12/25 12:49:27;;;;;;;15.95;11.45;;;;;;;2.77;73.07;93460.82;1677127;83;21092;-56
2021/12/25 12:52:38;;;;;;;18.57;13.75;;;;;;;2.81;73.02;93465.55;1687962;83;21639;-55
2021/12/25 12:55:20;;;;;;;20.32;13.60;;;;;;;2.80;73.36;93461.31;1705891;83;21012;-56
2021/12/25 12:57:49;;;;;;;21.95;13.53;;;;;;;2.74;73.53;93467.11;1684702;83;20976;-55
2021/12/25 13:00:25;;;;;;;16.42;11.38;;;;;;;2.72;73.76;93470.85;1674470;84;21039;-54
2021/12/25 13:02:56;;;;;;;16.05;10.70;;;;;;;2.71;73.63;93479.58;1675670;83;21004;-55
2021/12/25 13:05:25;;;;;;;11.38;9.40;;;;;;;2.67;73.71;93477.55;1653088;84;20963;-55
2021/12/25 13:07:55;;;;;;;11.63;8.85;;;;;;;2.58;73.61;93482.07;1681397;83;21024;-58
2021/12/25 13:13:07;;;;;;;11.63;9.20;;;;;;;2.50;73.51;93489.63;1682729;84;20977;-56